Time;durP1;ratioP1;P1;durP2;ratioP2;P2;SDS_P1;SDS_P2;PMS_P1;PMS_P2;Temp;Humidity;BMP_temperature;BMP_pressure;BME280_temperature;BME280_humidity;BME280_pressure;Samples;Min_cycle;Max_cycle;Signal;HPM_P1;HPM_P2
2021/12/22 00:01:39;;;;;;;0.65;0.65;;;-3.90;99.90;;;;;;4993393;28;20435;-81
2021/12/22 00:04:05;;;;;;;0.82;0.82;;;-3.90;99.90;;;;;;4975383;28;20411;-79
2021/12/22 00:06:33;;;;;;;6.60;3.40;;;-3.90;99.90;;;;;;4992851;28;20050;-80
2021/12/22 00:08:59;;;;;;;8.02;7.63;;;-3.90;99.90;;;;;;4993236;28;20121;-79
2021/12/22 00:11:27;;;;;;;2.05;1.45;;;-3.90;99.90;;;;;;4993210;28;20030;-80
2021/12/22 00:13:53;;;;;;;0.73;0.73;;;-3.90;99.90;;;;;;4993166;28;20046;-81
2021/12/22 00:16:18;;;;;;;2.03;1.95;;;-4.00;99.90;;;;;;4992496;28;20471;-81
2021/12/22 00:18:44;;;;;;;2.47;2.28;;;-4.00;99.90;;;;;;4991638;28;20125;-80
2021/12/22 00:21:10;;;;;;;6.65;4.88;;;-4.00;99.90;;;;;;4993227;28;20042;-80
2021/12/22 00:23:36;;;;;;;0.52;0.52;;;-4.00;99.90;;;;;;4993148;28;20048;-80
2021/12/22 00:26:03;;;;;;;4.65;4.07;;;-4.00;99.90;;;;;;4993191;28;20057;-79
2021/12/22 00:28:29;;;;;;;5.53;2.70;;;-4.00;99.90;;;;;;4975596;28;20050;-81
2021/12/22 00:30:55;;;;;;;0.50;0.50;;;-4.00;99.90;;;;;;4994426;28;20453;-81
2021/12/22 00:33:21;;;;;;;5.20;3.25;;;-4.00;99.90;;;;;;4996886;28;20117;-81
2021/12/22 00:35:47;;;;;;;3.70;3.55;;;-4.00;99.90;;;;;;4996311;28;20383;-80
2021/12/22 00:38:15;;;;;;;13.55;1.77;;;-4.00;99.90;;;;;;4996567;28;20061;-81
2021/12/22 00:40:42;;;;;;;1.95;1.85;;;-4.10;99.90;;;;;;4996727;28;20125;-77
2021/12/22 00:43:08;;;;;;;1.15;1.15;;;-4.10;99.90;;;;;;4997043;28;20475;-80
2021/12/22 00:45:35;;;;;;;7.38;6.85;;;-4.10;99.90;;;;;;4979199;28;20042;-79
2021/12/22 00:48:06;;;;;;;0.85;0.85;;;-4.10;99.90;;;;;;4995056;28;20144;-78
2021/12/22 00:50:33;;;;;;;5.00;4.53;;;-4.10;99.90;;;;;;4978328;28;20042;-78
2021/12/22 00:52:59;;;;;;;1.70;1.70;;;-4.10;99.90;;;;;;4979002;28;20042;-78
2021/12/22 00:55:25;;;;;;;2.70;2.60;;;-4.10;99.90;;;;;;4978538;28;20113;-78
2021/12/22 00:57:51;;;;;;;2.65;0.80;;;-4.10;99.90;;;;;;4978613;28;20042;-78
2021/12/22 01:00:20;;;;;;;0.68;0.68;;;-4.20;99.90;;;;;;4995958;28;20117;-78
2021/12/22 01:02:46;;;;;;;3.47;3.10;;;-4.20;99.90;;;;;;4978743;28;20052;-77
2021/12/22 01:05:14;;;;;;;4.45;3.00;;;-4.20;99.90;;;;;;4992561;28;20058;-77
2021/12/22 01:07:41;;;;;;;2.60;1.73;;;-4.20;99.90;;;;;;4997950;28;20046;-78
2021/12/22 01:10:08;;;;;;;3.30;2.13;;;-4.20;99.90;;;;;;5014115;28;20042;-78
2021/12/22 01:12:34;;;;;;;2.40;2.30;;;-4.20;99.90;;;;;;5014405;28;20049;-78
2021/12/22 01:15:00;;;;;;;1.50;1.38;;;-4.20;99.90;;;;;;5014281;28;20514;-78
2021/12/22 01:17:34;;;;;;;1.08;1.08;;;-4.20;99.90;;;;;;4997659;28;20128;-78
2021/12/22 01:20:06;;;;;;;1.50;1.38;;;-4.20;99.90;;;;;;5013639;28;20054;-78
2021/12/22 01:22:47;;;;;;;2.42;2.33;;;-4.20;99.90;;;;;;4997908;28;20054;-78
2021/12/22 01:25:15;;;;;;;2.88;2.78;;;-4.20;99.90;;;;;;5015541;28;20054;-78
2021/12/22 01:27:43;;;;;;;0.60;0.60;;;-4.20;99.90;;;;;;5015593;28;20037;-77
2021/12/22 01:30:21;;;;;;;1.80;1.70;;;-4.30;99.90;;;;;;5014954;28;20585;-78
2021/12/22 01:32:50;;;;;;;2.05;1.15;;;-4.30;99.90;;;;;;5014992;28;20510;-78
2021/12/22 01:35:19;;;;;;;3.17;1.58;;;-4.30;99.90;;;;;;5013735;28;20057;-78
2021/12/22 01:37:45;;;;;;;0.60;0.60;;;-4.30;99.90;;;;;;4997675;28;20033;-77
2021/12/22 01:40:12;;;;;;;2.55;2.45;;;-4.30;99.90;;;;;;5013715;28;20049;-78
2021/12/22 01:42:39;;;;;;;1.10;1.10;;;-4.40;99.90;;;;;;5014332;28;20042;-77
2021/12/22 01:45:31;;;;;;;2.58;2.38;;;-4.40;99.90;;;;;;4997353;28;20042;-78
2021/12/22 01:50:46;;;;;;;0.65;0.65;;;-4.40;99.90;;;;;;4997100;28;20619;-77
2021/12/22 01:53:21;;;;;;;4.13;3.83;;;-4.40;99.90;;;;;;4997432;28;20316;-78
2021/12/22 01:56:12;;;;;;;1.52;1.52;;;-4.40;99.90;;;;;;5013291;28;20053;-79
2021/12/22 01:58:43;;;;;;;0.40;0.40;;;-4.40;99.90;;;;;;5013468;28;20045;-78
2021/12/22 02:01:10;;;;;;;10.67;6.70;;;-4.40;99.90;;;;;;4997112;28;20042;-78
2021/12/22 02:03:39;;;;;;;0.32;0.32;;;-4.40;99.90;;;;;;5014445;28;20109;-78
2021/12/22 02:06:05;;;;;;;2.97;2.15;;;-4.40;99.90;;;;;;5029404;28;20410;-78
2021/12/22 02:08:32;;;;;;;0.50;0.50;;;-4.40;99.90;;;;;;4996787;28;20053;-78
2021/12/22 02:10:58;;;;;;;0.60;0.60;;;-4.40;99.90;;;;;;4996793;28;20042;-78
2021/12/22 02:13:30;;;;;;;1.05;1.02;;;-4.50;99.90;;;;;;5013245;28;20103;-78
2021/12/22 02:16:05;;;;;;;4.47;4.28;;;-4.50;99.90;;;;;;5012932;28;20054;-78
2021/12/22 02:18:31;;;;;;;4.03;2.75;;;-4.50;99.90;;;;;;5029455;28;20038;-78
2021/12/22 02:20:57;;;;;;;0.50;0.50;;;-4.50;99.90;;;;;;5014373;28;20042;-77
2021/12/22 02:23:23;;;;;;;3.72;2.78;;;-4.50;99.90;;;;;;5014033;28;20379;-77
2021/12/22 02:25:53;;;;;;;1.50;1.17;;;-4.60;99.90;;;;;;4996802;28;20458;-78
2021/12/22 02:28:24;;;;;;;2.35;2.22;;;-4.60;99.90;;;;;;4996501;28;20042;-77
2021/12/22 02:30:52;;;;;;;5.97;5.28;;;-4.60;99.90;;;;;;5014323;28;20425;-78
2021/12/22 02:33:32;;;;;;;0.85;0.85;;;-4.60;99.90;;;;;;5014350;28;20046;-77
2021/12/22 02:38:29;;;;;;;0.50;0.50;;;-4.60;99.90;;;;;;5013151;28;20408;-78
2021/12/22 02:40:55;;;;;;;2.40;2.40;;;-4.60;99.90;;;;;;5029410;28;20131;-78
2021/12/22 02:43:23;;;;;;;0.68;0.68;;;-4.70;99.90;;;;;;5012578;28;20100;-77
2021/12/22 02:45:51;;;;;;;1.02;1.02;;;-4.70;99.90;;;;;;5028797;28;20050;-78
2021/12/22 02:48:18;;;;;;;1.52;1.42;;;-4.70;99.90;;;;;;5012239;28;20072;-78
2021/12/22 02:50:44;;;;;;;2.05;2.00;;;-4.70;99.90;;;;;;5028636;28;20085;-79
2021/12/22 02:53:15;;;;;;;1.23;1.23;;;-4.70;99.90;;;;;;5025210;28;20049;-78
2021/12/22 02:55:53;;;;;;;2.28;2.00;;;-4.70;99.90;;;;;;5014680;28;20521;-81
2021/12/22 02:58:33;;;;;;;1.27;1.27;;;-4.70;99.90;;;;;;5012351;28;20046;-77
2021/12/22 03:03:45;;;;;;;0.77;0.77;;;-4.70;99.90;;;;;;5013325;28;20487;-77
2021/12/22 03:06:14;;;;;;;0.50;0.50;;;-4.70;99.90;;;;;;5028458;28;20140;-77
2021/12/22 03:08:40;;;;;;;2.80;2.60;;;-4.70;99.90;;;;;;4996134;28;20129;-77
2021/12/22 03:11:06;;;;;;;1.73;1.63;;;-4.70;99.90;;;;;;5013209;28;20080;-77
2021/12/22 03:13:32;;;;;;;11.65;2.78;;;-4.70;99.90;;;;;;5013236;28;20045;-78
2021/12/22 03:15:57;;;;;;;17.85;1.83;;;-4.70;99.90;;;;;;4995466;28;20045;-78
2021/12/22 03:18:23;;;;;;;11.80;5.10;;;-4.70;99.90;;;;;;4995641;28;20450;-77
2021/12/22 03:20:58;;;;;;;3.38;3.28;;;-4.70;99.90;;;;;;4995537;28;20034;-77
2021/12/22 03:23:23;;;;;;;2.88;2.78;;;-4.70;99.90;;;;;;5013058;28;20042;-77
2021/12/22 03:25:49;;;;;;;1.17;1.17;;;-4.80;99.90;;;;;;5013287;28;20554;-77
2021/12/22 03:28:15;;;;;;;0.80;0.80;;;-4.80;99.90;;;;;;5011775;28;20137;-77
2021/12/22 03:30:40;;;;;;;1.25;1.15;;;-4.80;99.90;;;;;;5028251;28;20034;-78
2021/12/22 03:33:06;;;;;;;0.85;0.85;;;-4.80;99.90;;;;;;5012913;28;20132;-77
2021/12/22 03:35:34;;;;;;;0.57;0.50;;;-4.80;99.90;;;;;;5013035;28;20046;-77
2021/12/22 03:38:00;;;;;;;2.38;2.25;;;-4.80;99.90;;;;;;4995194;28;20074;-77
2021/12/22 03:40:27;;;;;;;2.60;2.45;;;-4.80;99.90;;;;;;5012691;28;20089;-77
2021/12/22 03:42:54;;;;;;;5.07;4.70;;;-4.90;99.90;;;;;;4995217;28;20053;-77
2021/12/22 03:45:19;;;;;;;2.33;2.22;;;-4.90;99.90;;;;;;5011585;28;20045;-77
2021/12/22 03:47:45;;;;;;;2.88;2.67;;;-4.90;99.90;;;;;;4995096;28;20046;-78
2021/12/22 03:50:12;;;;;;;4.47;4.07;;;-4.90;99.90;;;;;;5012609;28;20034;-77
2021/12/22 03:52:38;;;;;;;11.27;8.20;;;-5.00;99.90;;;;;;5013085;28;20046;-77
2021/12/22 03:55:05;;;;;;;2.42;2.33;;;-4.90;99.90;;;;;;5028062;28;20042;-77
2021/12/22 03:57:31;;;;;;;0.68;0.68;;;-4.90;99.90;;;;;;5013022;28;20050;-78
2021/12/22 03:59:59;;;;;;;4.00;3.80;;;-5.00;99.90;;;;;;5012768;28;20493;-77
2021/12/22 04:02:25;;;;;;;0.73;0.73;;;-5.00;99.90;;;;;;5013067;28;20137;-77
2021/12/22 04:04:51;;;;;;;1.00;1.00;;;-5.00;99.90;;;;;;5012877;28;20045;-77
2021/12/22 04:07:18;;;;;;;2.55;2.50;;;-5.00;99.90;;;;;;5016818;28;20045;-77
2021/12/22 04:09:43;;;;;;;7.57;6.70;;;-5.00;99.90;;;;;;5016962;28;20046;-77
2021/12/22 04:12:10;;;;;;;1.45;1.45;;;-5.00;99.90;;;;;;5017121;28;20397;-77
2021/12/22 04:14:35;;;;;;;0.93;0.93;;;-5.00;99.90;;;;;;5016583;28;20572;-78
2021/12/22 04:17:02;;;;;;;3.80;3.50;;;-5.00;99.90;;;;;;5016916;28;20121;-77
2021/12/22 04:19:28;;;;;;;4.97;4.63;;;-5.00;99.90;;;;;;5015379;28;20050;-78
2021/12/22 04:21:54;;;;;;;1.98;1.92;;;-5.00;99.90;;;;;;5015417;28;20049;-77
2021/12/22 04:24:20;;;;;;;6.93;3.25;;;-5.00;99.90;;;;;;5015449;28;20107;-77
2021/12/22 04:26:46;;;;;;;3.80;3.50;;;-5.00;99.90;;;;;;5032057;28;20037;-77
2021/12/22 04:29:12;;;;;;;1.98;1.95;;;-5.00;99.90;;;;;;4998942;28;20552;-78
2021/12/22 04:31:39;;;;;;;5.32;4.80;;;-5.10;99.90;;;;;;5015341;28;20057;-77
2021/12/22 04:34:08;;;;;;;1.98;1.88;;;-5.10;99.90;;;;;;5031728;28;20129;-77
2021/12/22 04:36:35;;;;;;;3.55;3.30;;;-5.10;99.90;;;;;;5015162;28;20057;-77
2021/12/22 04:39:02;;;;;;;4.47;4.25;;;-5.10;99.90;;;;;;5031852;28;20466;-77
2021/12/22 04:41:28;;;;;;;3.20;3.03;;;-5.10;99.90;;;;;;5016511;28;20080;-77
2021/12/22 04:43:53;;;;;;;4.05;3.90;;;-5.10;99.90;;;;;;5016401;28;20120;-77
2021/12/22 04:46:23;;;;;;;1.25;1.25;;;-5.10;99.90;;;;;;5014799;28;20055;-77
2021/12/22 04:48:48;;;;;;;4.25;3.05;;;-5.10;99.90;;;;;;5031348;28;20057;-78
2021/12/22 04:51:24;;;;;;;5.53;5.20;;;-5.10;99.90;;;;;;5015055;28;20041;-78
2021/12/22 04:53:56;;;;;;;4.50;4.25;;;-5.10;99.90;;;;;;4998536;28;20064;-77
2021/12/22 04:56:21;;;;;;;1.27;1.17;;;-5.10;99.90;;;;;;5016342;28;20060;-77
2021/12/22 04:58:47;;;;;;;3.25;3.03;;;-5.10;99.90;;;;;;5014866;28;20042;-77
2021/12/22 05:01:13;;;;;;;1.00;1.00;;;-5.00;99.90;;;;;;5014608;28;20445;-77
2021/12/22 05:03:41;;;;;;;1.55;1.55;;;-5.10;99.90;;;;;;5014556;28;20053;-78
2021/12/22 05:06:06;;;;;;;12.50;3.97;;;-5.10;99.90;;;;;;5031148;28;20050;-77
2021/12/22 05:08:32;;;;;;;2.45;2.35;;;-5.10;99.90;;;;;;4998151;28;20104;-78
2021/12/22 05:10:58;;;;;;;5.32;1.73;;;-5.10;99.90;;;;;;5014748;28;20407;-77
2021/12/22 05:13:23;;;;;;;9.48;3.22;;;-5.10;99.90;;;;;;4998079;28;20053;-77
2021/12/22 05:15:51;;;;;;;15.40;11.27;;;-5.10;99.90;;;;;;5015971;28;20045;-77
2021/12/22 05:20:45;;;;;;;2.00;1.85;;;-5.10;99.90;;;;;;5015748;28;20050;-77
2021/12/22 05:23:11;;;;;;;1.92;1.92;;;-5.10;99.90;;;;;;5014383;28;20045;-77
2021/12/22 05:25:36;;;;;;;12.60;11.70;;;-5.10;99.90;;;;;;5014379;28;20173;-77
2021/12/22 05:28:02;;;;;;;4.47;3.90;;;-5.10;99.90;;;;;;5014082;28;20053;-77
2021/12/22 05:30:28;;;;;;;1.42;1.33;;;-5.10;99.90;;;;;;5014167;28;20115;-78
2021/12/22 05:32:55;;;;;;;1.00;1.00;;;-5.10;99.90;;;;;;5015470;28;20128;-77
2021/12/22 05:35:21;;;;;;;1.83;1.70;;;-5.10;99.90;;;;;;5013986;28;20490;-77
2021/12/22 05:37:47;;;;;;;1.50;1.50;;;-5.20;99.90;;;;;;5013923;28;20046;-77
2021/12/22 05:40:13;;;;;;;7.13;3.97;;;-5.20;99.90;;;;;;5013961;28;20140;-77
2021/12/22 05:42:38;;;;;;;2.72;2.67;;;-5.20;99.90;;;;;;5013941;28;20136;-77
2021/12/22 05:45:05;;;;;;;1.27;1.27;;;-5.20;99.90;;;;;;4997415;28;20069;-77
2021/12/22 05:47:31;;;;;;;2.92;2.80;;;-5.20;99.90;;;;;;5030248;28;20129;-78
2021/12/22 05:49:57;;;;;;;1.25;1.23;;;-5.20;99.90;;;;;;5015271;28;20120;-78
2021/12/22 05:52:23;;;;;;;1.17;1.17;;;-5.20;99.90;;;;;;5030273;28;20487;-78
2021/12/22 05:54:49;;;;;;;3.13;2.95;;;-5.20;99.90;;;;;;5013739;28;20085;-78
2021/12/22 05:57:15;;;;;;;5.38;3.38;;;-5.20;99.90;;;;;;5015056;28;20042;-78
2021/12/22 05:59:41;;;;;;;0.50;0.50;;;-5.20;99.90;;;;;;5014906;28;20045;-78
2021/12/22 06:02:07;;;;;;;1.50;1.50;;;-5.20;99.90;;;;;;5013793;28;20050;-78
2021/12/22 06:04:32;;;;;;;1.10;1.02;;;-5.20;99.90;;;;;;5014707;28;20112;-78
2021/12/22 06:06:58;;;;;;;1.50;1.50;;;-5.20;99.90;;;;;;4996995;28;20046;-78
2021/12/22 06:09:24;;;;;;;4.60;3.83;;;-5.20;99.90;;;;;;4997398;28;20041;-77
2021/12/22 06:11:49;;;;;;;16.50;12.50;;;-5.20;99.90;;;;;;5013540;28;20038;-77
2021/12/22 06:14:15;;;;;;;3.22;2.92;;;-5.20;99.90;;;;;;5014600;28;20049;-77
2021/12/22 06:16:41;;;;;;;0.98;0.98;;;-5.20;99.90;;;;;;5013302;28;20049;-77
2021/12/22 06:19:09;;;;;;;4.50;4.18;;;-5.20;99.90;;;;;;5013278;28;20042;-77
2021/12/22 06:21:35;;;;;;;0.88;0.88;;;-5.30;99.90;;;;;;5029673;28;20050;-78
2021/12/22 06:24:01;;;;;;;5.65;5.20;;;-5.20;99.90;;;;;;5013181;28;20394;-77
2021/12/22 06:26:27;;;;;;;1.05;1.05;;;-5.30;99.90;;;;;;5014730;28;20038;-77
2021/12/22 06:28:52;;;;;;;0.73;0.73;;;-5.30;99.90;;;;;;4996141;28;20104;-77
2021/12/22 06:31:18;;;;;;;1.75;1.30;;;-5.30;99.90;;;;;;5013208;28;20049;-77
2021/12/22 06:33:44;;;;;;;3.70;3.53;;;-5.30;99.90;;;;;;5012857;28;20104;-78
2021/12/22 06:36:10;;;;;;;0.88;0.88;;;-5.30;99.90;;;;;;5012971;28;20046;-77
2021/12/22 06:38:38;;;;;;;3.58;3.40;;;-5.30;99.90;;;;;;5029510;28;20463;-77
2021/12/22 06:41:04;;;;;;;2.30;2.20;;;-5.30;99.90;;;;;;5014208;28;20132;-77
2021/12/22 06:43:30;;;;;;;5.90;3.53;;;-5.20;99.90;;;;;;5013031;28;20053;-78
2021/12/22 06:45:56;;;;;;;2.42;2.28;;;-5.20;99.90;;;;;;5014149;28;20037;-78
2021/12/22 06:48:21;;;;;;;0.60;0.60;;;-5.20;99.90;;;;;;5012604;28;20402;-78
2021/12/22 06:50:47;;;;;;;1.27;1.27;;;-5.20;99.90;;;;;;5012915;28;20069;-77
2021/12/22 06:53:13;;;;;;;5.68;2.72;;;-5.10;99.90;;;;;;5012562;28;20084;-78
2021/12/22 06:55:38;;;;;;;1.80;1.80;;;-5.10;99.90;;;;;;5014137;28;20042;-77
2021/12/22 06:58:04;;;;;;;1.73;1.67;;;-5.10;99.90;;;;;;5012427;28;20038;-78
2021/12/22 07:00:30;;;;;;;1.75;1.75;;;-5.10;99.90;;;;;;5029164;28;20046;-77
2021/12/22 07:02:57;;;;;;;5.88;5.47;;;-5.10;99.90;;;;;;5013845;28;20046;-77
2021/12/22 07:05:23;;;;;;;0.45;0.45;;;-5.10;99.90;;;;;;4995873;28;20066;-77
2021/12/22 07:07:49;;;;;;;5.43;3.30;;;-5.10;99.90;;;;;;5012288;28;20068;-77
2021/12/22 07:10:16;;;;;;;1.02;1.02;;;-5.10;99.90;;;;;;5012517;28;20053;-77
2021/12/22 07:12:45;;;;;;;5.25;4.80;;;-5.10;99.90;;;;;;5012345;28;20053;-77
2021/12/22 07:15:13;;;;;;;7.50;6.95;;;-5.10;99.90;;;;;;5013425;28;20549;-77
2021/12/22 07:17:40;;;;;;;2.47;2.38;;;-5.10;99.90;;;;;;5013533;28;20073;-77
2021/12/22 07:20:06;;;;;;;1.88;1.80;;;-5.10;99.90;;;;;;4995369;28;20052;-76
2021/12/22 07:22:32;;;;;;;0.40;0.40;;;-5.10;99.90;;;;;;5013227;28;20521;-77
2021/12/22 07:24:58;;;;;;;5.88;4.88;;;-5.10;99.90;;;;;;5013207;28;20403;-77
2021/12/22 07:27:24;;;;;;;1.05;1.05;;;-5.10;99.90;;;;;;5013375;28;20041;-77
2021/12/22 07:29:50;;;;;;;6.15;5.78;;;-5.10;99.90;;;;;;5013338;28;20046;-77
2021/12/22 07:32:16;;;;;;;12.75;6.38;;;-5.10;99.90;;;;;;5013371;28;20049;-77
2021/12/22 07:34:43;;;;;;;2.97;0.73;;;-5.10;99.90;;;;;;4995449;28;20053;-77
2021/12/22 07:37:15;;;;;;;4.03;3.72;;;-5.10;99.90;;;;;;5013115;28;20558;-77
2021/12/22 07:39:41;;;;;;;1.20;1.20;;;-5.10;99.90;;;;;;5012040;28;20406;-77
2021/12/22 07:42:06;;;;;;;3.30;2.50;;;-5.10;99.90;;;;;;4995583;28;20056;-77
2021/12/22 07:44:32;;;;;;;6.90;3.45;;;-5.10;99.90;;;;;;4995360;28;20111;-77
2021/12/22 07:46:58;;;;;;;8.02;4.65;;;-5.10;99.90;;;;;;4995649;28;20050;-77
2021/12/22 07:49:23;;;;;;;0.90;0.90;;;-5.20;99.90;;;;;;5013076;28;20050;-77
2021/12/22 07:51:49;;;;;;;0.47;0.47;;;-5.20;99.90;;;;;;5013129;28;20092;-77
2021/12/22 07:54:15;;;;;;;3.92;3.72;;;-5.20;99.90;;;;;;5011697;28;20038;-77
2021/12/22 07:56:40;;;;;;;2.85;2.75;;;-5.20;99.90;;;;;;5013171;28;20044;-77
2021/12/22 07:59:06;;;;;;;2.47;2.40;;;-5.10;99.90;;;;;;4995429;28;20490;-77
2021/12/22 08:01:32;;;;;;;13.73;6.85;;;-5.10;99.90;;;;;;5012797;28;20046;-77
2021/12/22 08:03:59;;;;;;;0.77;0.77;;;-5.10;99.90;;;;;;5012796;28;20049;-77
2021/12/22 08:06:24;;;;;;;0.55;0.55;;;-5.10;99.90;;;;;;5012954;28;20056;-77
2021/12/22 08:08:50;;;;;;;8.00;3.78;;;-5.10;99.90;;;;;;5011749;28;20050;-77
2021/12/22 08:11:16;;;;;;;1.77;1.67;;;-5.00;99.90;;;;;;5011386;28;20041;-77
2021/12/22 08:13:42;;;;;;;12.43;3.40;;;-5.00;99.90;;;;;;4995060;28;20108;-77
2021/12/22 08:16:08;;;;;;;2.97;2.88;;;-5.00;99.90;;;;;;4994688;28;20046;-77
2021/12/22 08:18:34;;;;;;;6.05;3.70;;;-4.90;99.90;;;;;;5011623;28;20394;-77
2021/12/22 08:20:59;;;;;;;2.05;1.70;;;-4.90;99.90;;;;;;4995319;28;20089;-77
2021/12/22 08:23:25;;;;;;;1.88;1.85;;;-4.90;99.90;;;;;;5011395;28;20129;-77
2021/12/22 08:25:51;;;;;;;2.47;2.40;;;-4.80;99.90;;;;;;5011360;28;20049;-77
2021/12/22 08:28:17;;;;;;;3.42;2.53;;;-4.80;99.90;;;;;;5027696;28;20129;-77
2021/12/22 08:30:43;;;;;;;2.25;2.05;;;-4.70;99.90;;;;;;5011281;28;20081;-77
2021/12/22 08:33:15;;;;;;;6.63;2.72;;;-4.70;99.90;;;;;;4995199;28;20046;-77
2021/12/22 08:41:11;;;;;;;0.50;0.50;;;-4.60;99.90;;;;;;5012478;28;20494;-78
2021/12/22 08:43:36;;;;;;;1.15;1.15;;;-4.50;99.90;;;;;;4994830;28;20056;-78
2021/12/22 08:46:02;;;;;;;4.45;0.95;;;-4.50;99.90;;;;;;5011090;28;20170;-78
2021/12/22 08:48:28;;;;;;;0.30;0.30;;;-4.40;99.90;;;;;;4994282;28;20042;-78
2021/12/22 08:50:53;;;;;;;0.70;0.70;;;-4.40;99.90;;;;;;5011324;28;20096;-78
2021/12/22 08:53:19;;;;;;;3.05;2.90;;;-4.30;99.90;;;;;;5015929;28;20050;-78
2021/12/22 08:55:45;;;;;;;1.15;1.15;;;-4.30;99.90;;;;;;4998276;28;20450;-78
2021/12/22 08:58:10;;;;;;;0.50;0.50;;;-4.20;99.90;;;;;;5016330;28;20069;-78
2021/12/22 09:00:38;;;;;;;0.68;0.68;;;-4.20;99.90;;;;;;5016029;28;20048;-77
2021/12/22 09:03:04;;;;;;;0.40;0.40;;;-4.10;99.90;;;;;;5014742;28;20058;-77
2021/12/22 09:05:30;;;;;;;0.40;0.40;;;-4.00;99.90;;;;;;5015548;28;20065;-77
2021/12/22 09:07:55;;;;;;;14.30;3.47;;;-4.00;99.90;;;;;;5015922;28;20046;-77
2021/12/22 09:10:21;;;;;;;2.60;2.45;;;-3.90;99.90;;;;;;5014780;28;20052;-77
2021/12/22 09:12:47;;;;;;;1.02;1.02;;;-3.90;99.90;;;;;;5015797;28;20037;-78
2021/12/22 09:15:13;;;;;;;25.42;6.32;;;-3.80;99.90;;;;;;5031038;28;20046;-78
2021/12/22 09:17:39;;;;;;;1.35;1.35;;;-3.70;99.90;;;;;;5015854;28;20050;-78
2021/12/22 09:20:05;;;;;;;1.13;1.13;;;-3.70;99.90;;;;;;5030989;28;20052;-77
2021/12/22 09:22:31;;;;;;;1.05;1.05;;;-3.60;99.90;;;;;;5015546;28;20038;-78
2021/12/22 09:24:57;;;;;;;3.13;3.03;;;-3.60;99.90;;;;;;5015555;28;20093;-78
2021/12/22 09:27:22;;;;;;;0.77;0.77;;;-3.60;99.90;;;;;;5015569;28;20459;-78
2021/12/22 09:29:48;;;;;;;3.63;1.83;;;-3.50;99.90;;;;;;5015527;28;20046;-78
2021/12/22 09:32:17;;;;;;;2.70;2.55;;;-3.50;99.90;;;;;;5015463;28;20053;-78
2021/12/22 09:34:44;;;;;;;1.23;1.15;;;-3.40;99.90;;;;;;4997772;28;20049;-78
2021/12/22 09:37:10;;;;;;;1.45;1.45;;;-3.40;99.90;;;;;;5030827;28;20104;-78
2021/12/22 09:39:36;;;;;;;1.55;1.45;;;-3.40;99.90;;;;;;5014020;28;20054;-78
2021/12/22 09:42:03;;;;;;;2.28;1.85;;;-3.40;99.90;;;;;;5013746;28;20057;-78
2021/12/22 09:44:32;;;;;;;1.45;1.45;;;-3.30;99.90;;;;;;5030247;28;20057;-78
2021/12/22 09:46:59;;;;;;;1.17;1.17;;;-3.30;99.90;;;;;;5015234;28;20054;-78
2021/12/22 09:52:19;;;;;;;1.83;1.67;;;-3.20;99.90;;;;;;5015203;28;20112;-78
2021/12/22 09:54:56;;;;;;;21.20;3.60;;;-3.10;99.90;;;;;;5014837;28;20101;-78
2021/12/22 09:57:23;;;;;;;3.53;3.22;;;-3.10;99.90;;;;;;4997114;28;20082;-78
2021/12/22 09:59:51;;;;;;;3.50;3.30;;;-3.00;99.90;;;;;;4997303;28;20506;-78
2021/12/22 10:02:19;;;;;;;0.90;0.90;;;-3.00;99.90;;;;;;5029581;28;20410;-78
2021/12/22 10:04:45;;;;;;;5.25;4.22;;;-2.90;99.90;;;;;;4995975;28;20081;-77
2021/12/22 10:07:25;;;;;;;1.67;1.58;;;-2.90;99.90;;;;;;5029873;28;20054;-78
2021/12/22 10:09:52;;;;;;;2.05;2.05;;;-2.80;99.90;;;;;;5014487;28;20474;-78
2021/12/22 10:12:26;;;;;;;2.85;2.17;;;-2.80;99.90;;;;;;5014794;28;20045;-78
2021/12/22 10:14:56;;;;;;;9.23;3.13;;;-2.70;99.90;;;;;;5013112;28;20045;-78
2021/12/22 10:17:38;;;;;;;2.47;1.67;;;-2.70;99.90;;;;;;5014776;28;20042;-78
2021/12/22 10:20:08;;;;;;;1.00;1.00;;;-2.70;99.90;;;;;;5014717;28;20030;-78
2021/12/22 10:22:40;;;;;;;5.70;2.60;;;-2.60;99.90;;;;;;5014545;28;20084;-78
2021/12/22 10:25:17;;;;;;;2.35;0.98;;;-2.60;99.90;;;;;;5029482;28;20046;-78
2021/12/22 10:28:00;;;;;;;2.25;2.15;;;-2.50;99.90;;;;;;5014460;28;20053;-78
2021/12/22 10:30:35;;;;;;;5.63;2.90;;;-2.50;99.90;;;;;;5014445;28;20117;-78
2021/12/22 10:33:21;;;;;;;1.70;1.65;;;-2.40;99.90;;;;;;5014015;28;20128;-78
2021/12/22 10:35:49;;;;;;;3.00;2.80;;;-2.40;99.90;;;;;;5014112;28;20093;-78
2021/12/22 10:38:18;;;;;;;1.70;1.70;;;-2.40;99.90;;;;;;4996271;28;20399;-79
2021/12/22 10:40:50;;;;;;;3.42;3.17;;;-2.30;99.90;;;;;;4996243;28;20050;-78
2021/12/22 10:43:25;;;;;;;4.40;4.15;;;-2.30;99.90;;;;;;5029303;28;20394;-78
2021/12/22 10:45:55;;;;;;;4.95;3.42;;;-2.30;99.90;;;;;;5028894;28;20050;-78
2021/12/22 10:51:19;;;;;;;16.35;3.83;;;-2.10;99.90;;;;;;4996010;28;20111;-78
2021/12/22 10:53:47;;;;;;;8.85;4.38;;;-2.10;99.90;;;;;;5013530;28;20042;-78
2021/12/22 10:56:38;;;;;;;7.05;2.15;;;-2.00;99.90;;;;;;5013952;28;20056;-78
2021/12/22 10:59:24;;;;;;;7.97;3.83;;;-1.90;99.90;;;;;;4995986;28;20100;-78
2021/12/22 11:01:53;;;;;;;1.27;1.23;;;-1.90;99.90;;;;;;5028407;28;20053;-78
2021/12/22 11:04:24;;;;;;;3.05;2.92;;;-1.80;99.90;;;;;;5012131;28;20097;-78
2021/12/22 11:06:53;;;;;;;5.82;4.55;;;-1.80;99.90;;;;;;4995903;28;20057;-78
2021/12/22 11:09:20;;;;;;;3.25;2.65;;;-1.70;99.90;;;;;;5012876;28;20045;-78
2021/12/22 11:11:56;;;;;;;3.97;3.22;;;-1.70;99.90;;;;;;5013574;28;20052;-78
2021/12/22 11:14:33;;;;;;;2.42;1.75;;;-1.60;99.90;;;;;;5028380;28;20517;-78
2021/12/22 11:17:09;;;;;;;0.70;0.70;;;-1.60;99.90;;;;;;4995623;28;20049;-78
2021/12/22 11:20:01;;;;;;;1.00;1.00;;;-1.50;99.90;;;;;;4995714;28;20053;-78
2021/12/22 11:22:53;;;;;;;1.58;1.58;;;-1.50;99.90;;;;;;4996024;28;20046;-78
2021/12/22 11:25:20;;;;;;;3.80;3.20;;;-1.40;99.90;;;;;;5012254;28;20061;-78
2021/12/22 11:27:49;;;;;;;2.63;1.20;;;-1.40;99.90;;;;;;5013427;28;20189;-78
2021/12/22 11:30:14;;;;;;;13.73;5.18;;;-1.40;99.90;;;;;;5013116;28;20494;-78
2021/12/22 11:32:40;;;;;;;2.08;1.98;;;-1.40;99.90;;;;;;5013108;28;20080;-78
2021/12/22 11:35:10;;;;;;;9.95;3.22;;;-1.30;99.90;;;;;;5011806;28;20060;-78
2021/12/22 11:37:36;;;;;;;2.65;2.38;;;-1.30;99.90;;;;;;5013310;28;20111;-78
2021/12/22 11:40:05;;;;;;;5.82;1.98;;;-1.30;99.90;;;;;;4995553;28;20619;-78
2021/12/22 11:42:32;;;;;;;1.98;1.80;;;-1.30;99.90;;;;;;4995634;28;20054;-78
2021/12/22 11:45:05;;;;;;;4.47;2.05;;;-1.20;99.90;;;;;;4995485;28;20475;-78
2021/12/22 11:47:35;;;;;;;1.88;1.77;;;-1.20;99.90;;;;;;5011665;28;20096;-78
2021/12/22 11:50:05;;;;;;;4.43;2.53;;;-1.20;99.90;;;;;;5013367;28;20056;-78
2021/12/22 11:52:45;;;;;;;2.90;0.88;;;-1.20;99.90;;;;;;4995186;28;20054;-78
2021/12/22 11:55:23;;;;;;;10.57;4.53;;;-1.20;99.90;;;;;;5013163;28;20048;-78
2021/12/22 11:57:52;;;;;;;3.50;2.25;;;-1.20;99.90;;;;;;5013245;28;20069;-78
2021/12/22 12:00:32;;;;;;;3.10;2.90;;;-1.10;99.90;;;;;;5013210;28;20038;-78
2021/12/22 12:03:20;;;;;;;12.73;3.25;;;-1.10;99.90;;;;;;5013018;28;20057;-78
2021/12/22 12:06:08;;;;;;;1.27;1.27;;;-1.10;99.90;;;;;;5010669;28;20058;-78
2021/12/22 12:08:47;;;;;;;15.80;4.63;;;-1.00;99.90;;;;;;5012836;28;20509;-78
2021/12/22 12:11:18;;;;;;;5.38;4.45;;;-1.00;99.90;;;;;;5013154;28;20069;-78
2021/12/22 12:14:02;;;;;;;6.65;2.15;;;-1.00;99.90;;;;;;5012758;28;20384;-78
2021/12/22 12:22:11;;;;;;;15.60;4.80;;;-0.90;99.90;;;;;;5012636;28;20423;-78
2021/12/22 12:24:42;;;;;;;9.40;3.15;;;-0.90;99.90;;;;;;5011439;28;20046;-78
2021/12/22 12:27:30;;;;;;;1.08;1.00;;;-0.90;99.90;;;;;;5014904;28;20041;-78
2021/12/22 12:30:02;;;;;;;1.98;1.88;;;-0.90;99.90;;;;;;5016407;28;20474;-78
2021/12/22 12:32:40;;;;;;;2.85;2.63;;;-0.90;99.90;;;;;;5031600;28;20052;-78
2021/12/22 12:35:18;;;;;;;2.90;2.45;;;-0.80;99.90;;;;;;5031726;28;20364;-78
2021/12/22 12:38:14;;;;;;;1.80;1.70;;;-0.80;99.90;;;;;;4998994;28;20045;-78
2021/12/22 12:41:00;;;;;;;2.35;2.08;;;-0.80;99.90;;;;;;5031693;28;20048;-79
2021/12/22 12:43:48;;;;;;;2.45;2.25;;;-0.80;99.90;;;;;;5015243;28;20085;-79
2021/12/22 12:46:40;;;;;;;6.13;3.42;;;-0.80;99.90;;;;;;5014865;28;20573;-79
2021/12/22 12:51:36;;;;;;;5.85;5.47;;;-0.80;99.90;;;;;;5031631;28;20054;-79
2021/12/22 12:54:02;;;;;;;4.82;1.95;;;-0.80;99.90;;;;;;5031655;28;20505;-79
2021/12/22 12:56:37;;;;;;;0.82;0.82;;;-0.70;99.90;;;;;;5031374;28;20045;-79
2021/12/22 12:59:10;;;;;;;9.27;3.53;;;-0.70;99.90;;;;;;4998455;28;20060;-81
2021/12/22 13:01:50;;;;;;;1.60;1.13;;;-0.70;99.90;;;;;;5014814;28;20050;-80
2021/12/22 13:04:47;;;;;;;4.45;4.13;;;-0.70;99.90;;;;;;5014511;28;20058;-79
2021/12/22 13:07:18;;;;;;;1.80;1.05;;;-0.70;99.90;;;;;;5016208;28;20042;-82
2021/12/22 13:09:47;;;;;;;3.53;2.83;;;-0.60;99.90;;;;;;5014583;28;20053;-80
2021/12/22 13:17:36;;;;;;;4.80;4.03;;;-0.60;99.90;;;;;;4997922;28;20462;-80
2021/12/22 13:20:05;;;;;;;2.15;2.05;;;-0.60;99.90;;;;;;4998313;28;20049;-82
2021/12/22 13:22:35;;;;;;;4.82;2.13;;;-0.60;99.90;;;;;;5014338;28;20045;-80
2021/12/22 13:25:34;;;;;;;3.13;2.35;;;-0.70;99.90;;;;;;4997956;28;20475;-79
2021/12/22 13:28:05;;;;;;;21.67;3.38;;;-0.60;99.90;;;;;;4935816;29;20060;-78
2021/12/22 13:30:45;;;;;;;1.30;1.30;;;-0.70;99.90;;;;;;4919900;29;20052;-81